createdAt,value
2023-04-23T00:00:15.226Z,8.35
2023-04-23T00:02:46.883Z,7.35
2023-04-23T00:05:16.832Z,5.03
2023-04-23T00:07:46.056Z,5.47
2023-04-23T00:10:15.611Z,4.25
2023-04-23T00:12:46.903Z,3.90
2023-04-23T00:17:45.202Z,3.05
2023-04-23T00:20:14.270Z,5.50
2023-04-23T00:22:43.349Z,4.10
2023-04-23T00:25:12.650Z,4.10
2023-04-23T00:27:41.629Z,3.17
2023-04-23T00:30:12.678Z,2.83
2023-04-23T00:32:42.714Z,5.22
2023-04-23T00:35:12.121Z,3.92
2023-04-23T00:37:41.178Z,6.40
2023-04-23T00:40:11.697Z,4.40
2023-04-23T00:42:41.423Z,4.05
2023-04-23T00:45:13.407Z,3.78
2023-04-23T00:47:42.699Z,5.15
2023-04-23T00:50:13.189Z,5.10
2023-04-23T00:52:42.492Z,7.25
2023-04-23T00:55:11.935Z,7.25
2023-04-23T00:57:41.553Z,9.45
2023-04-23T01:00:14.432Z,7.28
2023-04-23T01:02:45.155Z,6.47
2023-04-23T01:05:17.428Z,7.47
2023-04-23T01:07:47.828Z,8.73
2023-04-23T01:10:16.916Z,7.13
2023-04-23T01:12:46.889Z,6.25
2023-04-23T01:15:17.642Z,5.80
2023-04-23T01:17:47.387Z,6.63
2023-04-23T01:20:17.772Z,6.53
2023-04-23T01:22:48.208Z,5.65
2023-04-23T01:25:17.647Z,5.77
2023-04-23T01:27:46.780Z,6.65
2023-04-23T01:30:16.653Z,7.55
2023-04-23T01:32:46.250Z,7.78
2023-04-23T01:35:16.338Z,7.22
2023-04-23T01:37:48.198Z,6.03
2023-04-23T01:40:17.234Z,7.20
2023-04-23T01:42:46.251Z,8.35
2023-04-23T01:45:15.681Z,12.18
2023-04-23T01:47:44.868Z,9.68
2023-04-23T01:50:14.130Z,8.82
2023-04-23T01:52:44.876Z,9.48
2023-04-23T01:55:15.330Z,10.77
2023-04-23T01:57:44.396Z,9.23
2023-04-23T02:00:15.132Z,11.20
2023-04-23T02:02:45.724Z,10.50
2023-04-23T02:05:18.611Z,11.57
2023-04-23T02:07:49.965Z,11.20
2023-04-23T02:10:20.817Z,13.25
2023-04-23T02:12:50.006Z,13.27
2023-04-23T02:15:20.090Z,16.77
2023-04-23T02:17:51.313Z,14.15
2023-04-23T02:22:50.711Z,13.95
2023-04-23T02:25:22.053Z,12.68
2023-04-23T02:27:51.161Z,13.05
2023-04-23T02:30:20.287Z,14.32
2023-04-23T02:32:50.173Z,12.18
2023-04-23T02:35:20.020Z,15.15
2023-04-23T02:37:49.037Z,13.98
2023-04-23T02:40:18.050Z,11.95
2023-04-23T02:42:48.480Z,12.50
2023-04-23T02:45:18.607Z,12.90
2023-04-23T02:47:47.608Z,14.07
2023-04-23T02:50:17.104Z,13.35
2023-04-23T02:52:47.901Z,15.38
2023-04-23T02:55:17.169Z,11.90
2023-04-23T02:57:47.718Z,13.27
2023-04-23T03:00:17.261Z,13.35
2023-04-23T03:02:47.147Z,11.95
2023-04-23T03:05:16.249Z,13.38
2023-04-23T03:07:45.341Z,11.20
2023-04-23T03:10:14.390Z,15.65
2023-04-23T03:12:43.679Z,13.50
2023-04-23T03:15:14.370Z,13.50
2023-04-23T03:17:43.483Z,12.82
2023-04-23T03:20:13.428Z,12.90
2023-04-23T03:22:42.831Z,15.23
2023-04-23T03:25:12.216Z,16.30
2023-04-23T03:27:42.429Z,13.70
2023-04-23T03:30:13.683Z,13.93
2023-04-23T03:35:11.697Z,13.98
2023-04-23T03:37:44.792Z,13.25
2023-04-23T03:40:14.865Z,13.35
2023-04-23T03:42:46.041Z,14.65
2023-04-23T03:45:18.117Z,14.77
2023-04-23T03:47:47.280Z,12.17
2023-04-23T03:50:17.501Z,15.82
2023-04-23T03:52:49.019Z,13.70
2023-04-23T03:55:32.632Z,16.35
2023-04-23T03:58:01.896Z,14.15
2023-04-23T04:00:42.819Z,14.55
2023-04-23T04:03:11.957Z,14.43
2023-04-23T04:05:41.178Z,13.75
2023-04-23T04:08:10.199Z,17.05
2023-04-23T04:10:39.410Z,13.75
2023-04-23T04:13:08.588Z,15.43
2023-04-23T04:15:37.627Z,14.38
2023-04-23T04:18:08.189Z,14.88
2023-04-23T04:20:37.329Z,16.67
2023-04-23T04:23:06.357Z,14.82
2023-04-23T04:25:40.000Z,15.98
2023-04-23T04:28:09.456Z,16.27
2023-04-23T04:30:38.582Z,16.48
2023-04-23T04:33:09.118Z,14.65
2023-04-23T04:35:38.128Z,15.70
2023-04-23T04:38:07.396Z,15.45
2023-04-23T04:40:36.434Z,15.52
2023-04-23T04:43:06.345Z,13.98
2023-04-23T04:45:35.374Z,14.13
2023-04-23T04:48:04.868Z,13.57
2023-04-23T04:50:35.440Z,14.05
2023-04-23T04:53:04.449Z,12.77
2023-04-23T04:55:33.494Z,13.85
2023-04-23T04:58:02.520Z,13.05
2023-04-23T05:00:32.652Z,14.00
2023-04-23T05:03:02.125Z,12.35
2023-04-23T05:05:31.218Z,14.10
2023-04-23T05:08:02.378Z,12.70
2023-04-23T05:13:00.767Z,14.15
2023-04-23T05:15:29.970Z,13.75
2023-04-23T05:17:59.046Z,13.95
2023-04-23T05:20:28.128Z,14.27
2023-04-23T05:22:59.447Z,14.30
2023-04-23T05:27:59.272Z,14.45
2023-04-23T05:30:28.579Z,16.40
2023-04-23T05:32:57.650Z,14.35
2023-04-23T05:35:26.743Z,14.40
2023-04-23T05:37:55.767Z,17.08
2023-04-23T05:40:24.825Z,14.70
2023-04-23T05:42:55.223Z,17.13
2023-04-23T05:45:24.381Z,15.47
2023-04-23T05:47:53.496Z,16.10
2023-04-23T05:50:22.714Z,14.13
2023-04-23T05:52:51.747Z,16.25
2023-04-23T05:55:21.551Z,15.85
2023-04-23T05:57:50.579Z,16.50
2023-04-23T06:00:21.061Z,14.45
2023-04-23T06:02:50.172Z,13.18
2023-04-23T06:05:19.521Z,14.48
2023-04-23T06:07:48.885Z,14.55
2023-04-23T06:10:17.911Z,14.02
2023-04-23T06:12:46.951Z,15.25
2023-04-23T06:15:15.974Z,13.80
2023-04-23T06:17:46.398Z,13.88
2023-04-23T06:20:15.442Z,14.30
2023-04-23T06:22:47.463Z,14.70
2023-04-23T06:25:16.519Z,15.85
2023-04-23T06:27:45.716Z,14.65
2023-04-23T06:30:23.004Z,15.10
2023-04-23T06:32:53.987Z,15.18
2023-04-23T06:35:23.156Z,13.85
2023-04-23T06:37:52.183Z,13.43
2023-04-23T06:40:21.740Z,15.40
2023-04-23T06:42:51.223Z,17.15
2023-04-23T06:45:23.171Z,15.90
2023-04-23T06:47:53.822Z,16.73
2023-04-23T06:50:23.072Z,18.90
2023-04-23T06:53:08.772Z,18.52
2023-04-23T06:55:37.961Z,20.20
2023-04-23T06:58:08.336Z,18.50
2023-04-23T07:00:37.360Z,20.10
2023-04-23T07:03:08.065Z,21.90
2023-04-23T07:05:37.194Z,19.00
2023-04-23T07:08:06.298Z,20.40
2023-04-23T07:10:35.436Z,20.05
2023-04-23T07:13:04.518Z,21.30
2023-04-23T07:15:33.582Z,23.23
2023-04-23T07:18:03.629Z,26.77
2023-04-23T07:20:34.356Z,27.48
2023-04-23T07:23:04.213Z,26.83
2023-04-23T07:25:33.256Z,30.80
2023-04-23T07:28:04.894Z,33.17
2023-04-23T07:30:33.947Z,31.67
2023-04-23T07:33:03.068Z,31.92
2023-04-23T07:35:33.830Z,31.27
2023-04-23T07:38:07.115Z,28.80
2023-04-23T07:40:37.094Z,29.63
2023-04-23T07:43:06.252Z,28.02
2023-04-23T07:45:35.430Z,26.65
2023-04-23T07:48:04.562Z,27.48
2023-04-23T07:50:34.977Z,27.25
2023-04-23T07:53:04.394Z,28.60
2023-04-23T07:55:33.550Z,24.80
2023-04-23T07:58:02.556Z,27.40
2023-04-23T08:00:31.767Z,25.25
2023-04-23T08:03:01.031Z,25.15
2023-04-23T08:05:30.246Z,29.25
2023-04-23T08:08:00.810Z,28.08
2023-04-23T08:10:29.958Z,31.38
2023-04-23T08:12:59.073Z,26.88
2023-04-23T08:15:28.190Z,30.77
2023-04-23T08:17:57.461Z,28.35
2023-04-23T08:20:27.001Z,27.85
2023-04-23T08:22:56.698Z,28.13
2023-04-23T08:25:27.398Z,31.50
2023-04-23T08:27:57.710Z,30.02
2023-04-23T08:30:26.893Z,26.52
2023-04-23T08:32:56.520Z,24.75
2023-04-23T08:35:26.212Z,24.80
2023-04-23T08:37:55.318Z,25.60
2023-04-23T08:40:24.581Z,23.08
2023-04-23T08:42:59.584Z,23.65
2023-04-23T08:45:28.738Z,28.00
2023-04-23T08:48:02.329Z,23.90
2023-04-23T08:50:32.218Z,23.65
2023-04-23T08:53:02.002Z,26.30
2023-04-23T08:55:31.747Z,26.60
2023-04-23T08:58:03.256Z,28.02
2023-04-23T09:00:32.605Z,24.35
2023-04-23T09:03:02.300Z,24.45
2023-04-23T09:05:32.215Z,23.83
2023-04-23T09:08:01.439Z,19.92
2023-04-23T09:10:30.515Z,20.42
2023-04-23T09:12:59.565Z,20.05
2023-04-23T09:15:30.034Z,18.52
2023-04-23T09:18:00.910Z,19.00
2023-04-23T09:20:30.027Z,21.35
2023-04-23T09:22:59.072Z,21.80
2023-04-23T09:25:28.851Z,19.65
2023-04-23T09:28:01.438Z,18.23
2023-04-23T09:30:31.898Z,19.00
2023-04-23T09:33:01.165Z,21.60
2023-04-23T09:35:30.300Z,17.15
2023-04-23T09:37:59.375Z,16.15
2023-04-23T09:40:28.820Z,17.27
2023-04-23T09:42:57.855Z,15.77
2023-04-23T09:45:26.888Z,15.15
2023-04-23T09:47:58.387Z,14.07
2023-04-23T09:50:35.615Z,17.45
2023-04-23T09:53:05.043Z,15.40
2023-04-23T09:55:38.607Z,13.02
2023-04-23T09:58:12.436Z,16.42
2023-04-23T10:00:42.345Z,15.57
2023-04-23T10:03:12.986Z,12.95
2023-04-23T10:08:17.406Z,15.73
2023-04-23T10:13:21.536Z,16.45
2023-04-23T10:15:51.086Z,15.38
2023-04-23T10:18:21.792Z,14.23
2023-04-23T10:20:51.686Z,14.50
2023-04-23T10:23:22.617Z,14.23
2023-04-23T10:25:54.443Z,14.57
2023-04-23T10:28:29.193Z,12.55
2023-04-23T10:30:59.524Z,13.10
2023-04-23T10:33:39.954Z,14.02
2023-04-23T10:36:15.488Z,16.70
2023-04-23T10:38:56.933Z,14.30
2023-04-23T10:41:37.780Z,13.93
2023-04-23T10:44:07.541Z,11.77
2023-04-23T10:46:39.246Z,13.10
2023-04-23T10:49:14.872Z,13.30
2023-04-23T10:52:17.758Z,11.57
2023-04-23T10:54:37.582Z,14.15
2023-04-23T10:57:08.686Z,14.32
2023-04-23T10:59:41.287Z,12.32
2023-04-23T11:02:11.791Z,12.88
2023-04-23T11:04:47.833Z,12.07
2023-04-23T11:07:19.917Z,12.75
2023-04-23T11:09:50.220Z,9.50
2023-04-23T11:12:33.485Z,11.52
2023-04-23T11:15:12.852Z,7.90
2023-04-23T11:18:01.717Z,7.20
2023-04-23T11:20:32.209Z,9.52
2023-04-23T11:23:01.248Z,10.50
2023-04-23T11:25:30.586Z,9.40
2023-04-23T11:28:00.155Z,8.15
2023-04-23T11:30:30.970Z,9.00
2023-04-23T11:33:01.377Z,6.90
2023-04-23T11:35:39.724Z,9.10
2023-04-23T11:38:10.553Z,8.18
2023-04-23T11:40:41.361Z,8.68
2023-04-23T11:43:10.413Z,11.80
2023-04-23T11:45:39.433Z,8.85
2023-04-23T11:48:08.579Z,12.30
2023-04-23T11:50:39.176Z,7.78
2023-04-23T11:53:10.032Z,8.23
2023-04-23T11:55:43.986Z,7.68
2023-04-23T11:58:13.273Z,11.13
2023-04-23T12:00:42.604Z,7.07
2023-04-23T12:03:13.899Z,6.68
2023-04-23T12:05:46.026Z,7.35
2023-04-23T12:08:17.528Z,7.18
2023-04-23T12:13:17.297Z,7.22
2023-04-23T12:15:48.308Z,10.13
2023-04-23T12:18:17.546Z,8.15
2023-04-23T12:20:48.123Z,9.40
2023-04-23T12:23:17.179Z,9.35
2023-04-23T12:25:46.677Z,8.57
2023-04-23T12:28:15.739Z,10.13
2023-04-23T12:30:46.213Z,8.57
2023-04-23T12:33:15.667Z,7.47
2023-04-23T12:35:52.612Z,7.53
2023-04-23T12:38:26.877Z,5.93
2023-04-23T12:40:57.017Z,9.75
2023-04-23T12:43:27.153Z,6.53
2023-04-23T12:45:57.077Z,9.05
2023-04-23T12:48:26.161Z,9.27
2023-04-23T12:50:56.598Z,6.63
2023-04-23T12:53:25.622Z,8.93
2023-04-23T12:55:54.646Z,7.15
2023-04-23T12:58:23.744Z,8.82
2023-04-23T13:00:52.773Z,7.20
2023-04-23T13:03:22.282Z,7.15
2023-04-23T13:05:51.381Z,9.77
2023-04-23T13:08:21.757Z,7.85
2023-04-23T13:10:51.089Z,13.77
2023-04-23T13:13:20.173Z,8.65
2023-04-23T13:15:49.293Z,7.28
2023-04-23T13:18:18.280Z,9.70
2023-04-23T13:20:47.269Z,9.13
2023-04-23T13:23:16.276Z,9.10
2023-04-23T13:25:46.635Z,9.15
2023-04-23T13:28:15.886Z,7.63
2023-04-23T13:30:44.876Z,7.57
2023-04-23T13:33:13.896Z,8.38
2023-04-23T13:35:44.179Z,12.18
2023-04-23T13:38:13.383Z,9.25
2023-04-23T13:40:42.376Z,9.02
2023-04-23T13:43:12.803Z,10.55
2023-04-23T13:45:41.982Z,11.83
2023-04-23T13:48:11.169Z,10.68
2023-04-23T13:50:40.382Z,12.60
2023-04-23T13:53:11.617Z,9.98
2023-04-23T13:55:40.962Z,11.60
2023-04-23T13:58:12.158Z,8.10
2023-04-23T14:03:13.335Z,13.05
2023-04-23T14:05:42.740Z,8.85
2023-04-23T14:08:13.093Z,10.00
2023-04-23T14:10:43.670Z,10.27
2023-04-23T14:13:12.940Z,10.07
2023-04-23T14:15:47.738Z,8.52
2023-04-23T14:18:17.127Z,11.50
2023-04-23T14:20:46.259Z,11.80
2023-04-23T14:23:46.168Z,10.73
2023-04-23T14:26:34.366Z,11.02
2023-04-23T14:29:26.713Z,10.65
2023-04-23T14:31:58.005Z,9.32
2023-04-23T14:34:27.153Z,10.93
2023-04-23T14:36:56.292Z,11.07
2023-04-23T14:39:27.028Z,10.43
2023-04-23T14:41:56.445Z,9.63
2023-04-23T14:44:26.697Z,12.43
2023-04-23T14:46:57.495Z,9.23
2023-04-23T14:49:26.977Z,10.88
2023-04-23T14:51:57.784Z,9.00
2023-04-23T14:54:26.905Z,8.82
2023-04-23T14:56:56.558Z,10.55
2023-04-23T14:59:25.715Z,10.80
2023-04-23T15:01:54.817Z,10.10
2023-04-23T15:04:25.303Z,12.07
2023-04-23T15:06:54.366Z,9.73
2023-04-23T15:09:23.374Z,10.15
2023-04-23T15:11:52.536Z,10.50
2023-04-23T15:14:26.843Z,10.50
2023-04-23T15:16:55.921Z,10.80
2023-04-23T15:19:26.478Z,11.38
2023-04-23T15:21:55.521Z,14.93
2023-04-23T15:24:24.732Z,14.75
2023-04-23T15:26:55.143Z,19.50
2023-04-23T15:29:24.673Z,20.57
2023-04-23T15:31:58.171Z,19.10
2023-04-23T15:34:28.957Z,24.75
2023-04-23T15:36:58.218Z,20.13
2023-04-23T15:39:27.485Z,15.82
2023-04-23T15:41:58.270Z,16.52
2023-04-23T15:44:27.296Z,15.15
2023-04-23T15:46:56.373Z,15.35
2023-04-23T15:49:25.681Z,12.27
2023-04-23T15:51:56.278Z,11.48
2023-04-23T15:54:25.910Z,12.27
2023-04-23T15:56:57.289Z,12.82
2023-04-23T16:01:55.086Z,12.25
2023-04-23T16:04:24.354Z,13.02
2023-04-23T16:06:55.001Z,14.15
2023-04-23T16:09:24.097Z,11.53
2023-04-23T16:11:54.630Z,12.35
2023-04-23T16:14:23.870Z,13.15
2023-04-23T16:16:53.216Z,12.50
2023-04-23T16:19:22.207Z,14.25
2023-04-23T16:21:51.284Z,13.27
2023-04-23T16:24:23.172Z,11.32
2023-04-23T16:26:52.302Z,11.95
2023-04-23T16:29:23.071Z,11.05
2023-04-23T16:31:52.443Z,10.60
2023-04-23T16:34:21.493Z,11.10
2023-04-23T16:36:50.507Z,8.98
2023-04-23T16:39:21.063Z,8.38
2023-04-23T16:41:50.475Z,8.80
2023-04-23T16:44:19.895Z,10.40
2023-04-23T16:46:49.182Z,8.52
2023-04-23T16:49:18.411Z,9.55
2023-04-23T16:51:47.736Z,7.95
2023-04-23T16:54:16.933Z,8.55
2023-04-23T16:56:47.582Z,6.93
2023-04-23T16:59:17.340Z,7.85
2023-04-23T17:01:46.638Z,9.07
2023-04-23T17:04:15.891Z,8.70
2023-04-23T17:06:45.425Z,8.88
2023-04-23T17:09:15.427Z,12.52
2023-04-23T17:11:44.701Z,9.18
2023-04-23T17:14:15.421Z,9.95
2023-04-23T17:16:44.709Z,9.17
2023-04-23T17:19:13.922Z,10.77
2023-04-23T17:21:43.212Z,13.10
2023-04-23T17:24:12.433Z,13.75
2023-04-23T17:26:41.512Z,11.52
2023-04-23T17:29:10.732Z,18.42
2023-04-23T17:31:41.359Z,14.57
2023-04-23T17:34:10.523Z,11.30
2023-04-23T17:36:39.642Z,11.95
2023-04-23T17:39:08.897Z,11.50
2023-04-23T17:41:37.970Z,13.52
2023-04-23T17:44:07.393Z,11.20
2023-04-23T17:46:36.559Z,11.43
2023-04-23T17:49:08.019Z,9.40
2023-04-23T17:54:06.397Z,12.30
2023-04-23T17:56:35.691Z,12.85
2023-04-23T17:59:04.928Z,12.27
2023-04-23T18:01:34.611Z,13.98
2023-04-23T18:04:04.165Z,12.75
2023-04-23T18:06:35.772Z,15.35
2023-04-23T18:09:05.090Z,12.38
2023-04-23T18:11:34.358Z,17.45
2023-04-23T18:14:03.685Z,14.10
2023-04-23T18:16:32.797Z,11.50
2023-04-23T18:19:01.935Z,14.05
2023-04-23T18:21:31.385Z,13.68
2023-04-23T18:24:02.604Z,12.95
2023-04-23T18:26:31.726Z,15.85
2023-04-23T18:29:00.847Z,14.30
2023-04-23T18:31:30.096Z,16.70
2023-04-23T18:34:02.871Z,15.13
2023-04-23T18:36:33.648Z,19.33
2023-04-23T18:39:07.507Z,16.50
2023-04-23T18:41:36.621Z,14.55
2023-04-23T18:44:05.667Z,16.83
2023-04-23T18:46:34.807Z,18.92
2023-04-23T18:49:07.523Z,24.48
2023-04-23T18:51:39.750Z,17.63
2023-04-23T18:54:14.823Z,24.85
2023-04-23T18:56:43.943Z,43.13
2023-04-23T18:59:13.026Z,43.00
2023-04-23T19:01:43.357Z,48.28
2023-04-23T19:04:12.616Z,35.20
2023-04-23T19:06:42.237Z,33.03
2023-04-23T19:09:12.691Z,37.10
2023-04-23T19:11:41.684Z,40.00
2023-04-23T19:14:10.728Z,33.70
2023-04-23T19:16:40.054Z,28.73
2023-04-23T19:19:09.285Z,22.83
2023-04-23T19:21:38.316Z,19.50
2023-04-23T19:24:07.711Z,17.58
2023-04-23T19:26:38.142Z,18.05
2023-04-23T19:29:08.125Z,15.27
2023-04-23T19:31:37.519Z,14.07
2023-04-23T19:34:06.594Z,19.50
2023-04-23T19:36:35.612Z,18.63
2023-04-23T19:39:04.785Z,20.70
2023-04-23T19:41:33.888Z,16.88
2023-04-23T19:44:04.346Z,17.75
2023-04-23T19:46:33.543Z,18.77
2023-04-23T19:49:02.625Z,21.30
2023-04-23T19:51:35.754Z,17.08
2023-04-23T19:54:05.414Z,17.98
2023-04-23T19:56:34.547Z,16.35
2023-04-23T19:59:07.055Z,17.20
2023-04-23T20:01:36.412Z,18.73
2023-04-23T20:04:07.202Z,18.58
2023-04-23T20:06:36.748Z,19.90
2023-04-23T20:09:07.370Z,35.58
2023-04-23T20:11:37.066Z,46.80
2023-04-23T20:14:07.591Z,46.08
2023-04-23T20:16:36.902Z,45.25
2023-04-23T20:19:10.928Z,34.20
2023-04-23T20:21:40.315Z,32.65
2023-04-23T20:24:10.465Z,27.63
2023-04-23T20:26:41.658Z,21.58
2023-04-23T20:29:12.307Z,18.15
2023-04-23T20:31:41.874Z,20.10
2023-04-23T20:34:11.135Z,20.25
2023-04-23T20:36:40.254Z,17.48
2023-04-23T20:39:09.496Z,19.42
2023-04-23T20:41:38.611Z,16.38
2023-04-23T20:44:07.657Z,15.88
2023-04-23T20:46:38.492Z,13.70
2023-04-23T20:49:08.853Z,12.93
2023-04-23T20:51:38.009Z,13.55
2023-04-23T20:54:07.136Z,25.38
2023-04-23T20:56:36.207Z,28.58
2023-04-23T20:59:06.301Z,26.67
2023-04-23T21:01:35.386Z,33.97
2023-04-23T21:04:06.976Z,52.83
2023-04-23T21:06:36.525Z,36.63
2023-04-23T21:09:05.794Z,41.00
2023-04-23T21:11:34.914Z,36.55
2023-04-23T21:14:08.624Z,33.65
2023-04-23T21:16:38.162Z,31.50
2023-04-23T21:19:08.845Z,32.28
2023-04-23T21:21:38.102Z,33.33
2023-04-23T21:24:07.391Z,42.45
2023-04-23T21:26:36.772Z,38.08
2023-04-23T21:29:05.839Z,32.58
2023-04-23T21:31:44.974Z,32.85
2023-04-23T21:34:15.908Z,31.75
2023-04-23T21:36:45.839Z,30.05
2023-04-23T21:39:14.919Z,29.17
2023-04-23T21:41:44.849Z,26.77
2023-04-23T21:44:14.027Z,29.48
2023-04-23T21:46:44.425Z,27.13
2023-04-23T21:49:13.555Z,30.77
2023-04-23T21:51:44.445Z,27.42
2023-04-23T21:54:13.980Z,26.70
2023-04-23T21:56:43.014Z,28.08
2023-04-23T21:59:12.009Z,29.27
2023-04-23T22:01:41.124Z,27.17
2023-04-23T22:04:10.453Z,24.35
2023-04-23T22:06:39.546Z,24.35
2023-04-23T22:09:10.292Z,24.27
2023-04-23T22:11:40.956Z,26.48
2023-04-23T22:14:11.475Z,27.98
2023-04-23T22:16:40.901Z,29.95
2023-04-23T22:19:10.368Z,29.13
2023-04-23T22:21:39.422Z,26.15
2023-04-23T22:24:09.951Z,26.48
2023-04-23T22:26:39.101Z,28.02
2023-04-23T22:29:08.292Z,25.23
2023-04-23T22:31:37.362Z,25.73
2023-04-23T22:34:06.771Z,24.77
2023-04-23T22:36:35.875Z,28.95
2023-04-23T22:39:05.918Z,26.25
2023-04-23T22:41:38.791Z,26.58
2023-04-23T22:44:09.285Z,26.13
2023-04-23T22:46:38.936Z,29.10
2023-04-23T22:49:11.147Z,27.38
2023-04-23T22:51:40.243Z,22.33
2023-04-23T22:54:09.270Z,23.60
2023-04-23T22:56:39.754Z,23.45
2023-04-23T22:59:08.930Z,22.57
2023-04-23T23:01:38.025Z,22.50
2023-04-23T23:04:07.198Z,25.38
2023-04-23T23:06:36.246Z,25.45
2023-04-23T23:09:05.374Z,23.88
2023-04-23T23:11:34.853Z,27.02
2023-04-23T23:14:05.799Z,24.17
2023-04-23T23:16:34.787Z,26.67
2023-04-23T23:19:04.261Z,29.00
2023-04-23T23:21:33.593Z,27.38
2023-04-23T23:24:02.716Z,24.73
2023-04-23T23:26:32.150Z,28.25
2023-04-23T23:29:01.219Z,26.98
2023-04-23T23:31:32.412Z,25.70
2023-04-23T23:34:01.482Z,28.05
2023-04-23T23:36:32.055Z,22.17
2023-04-23T23:39:01.230Z,21.92
2023-04-23T23:41:30.280Z,23.15
2023-04-23T23:43:59.304Z,22.45
2023-04-23T23:46:28.586Z,22.92
2023-04-23T23:48:59.108Z,22.25
2023-04-23T23:51:29.159Z,21.27
2023-04-23T23:53:58.208Z,21.10
2023-04-23T23:56:27.287Z,24.08
2023-04-23T23:58:56.267Z,26.65
